Letterkenny, Ireland
Current Conditions -  °F | °C
As of 12:20 PM on Monday 26 Jan 2015 (Local Time) from EGAE Reporting Station
Rain Showers Rain Showers  
Wind Chill: 40°   Ceiling: Unl
Heat Index: 46°   Visibility: 6mi
Dew Point: 37°   Wind: 16mph
Humidity: 71%   Direction: 300°WNW
Pressure: 30.24"   Gusts: NA
Location:  54.94°N, 7.74°W
Report Text: EGAE 261220Z 30014KT 9999 VCSH FEW022 SCT039 08/03 Q1024
Loading
Personal Weather Stations






























Interactive Weather Map New forecast layout! Learn more

10-Day Weather Forecast

Advertisements
Track Severe Weather on mobile